sensor_id;sensor_type;location;lat;lon;timestamp;pressure;altitude;pressure_sealevel;temperature;humidity
19023;BME280;35226;48.606;8.858;2023-05-23T00:00:22;96158.75;;;15.18;100.00
19023;BME280;35226;48.606;8.858;2023-05-23T00:02:48;96158.19;;;15.14;100.00
19023;BME280;35226;48.606;8.858;2023-05-23T00:05:14;96165.28;;;15.15;100.00
19023;BME280;35226;48.606;8.858;2023-05-23T00:07:45;96158.84;;;15.09;100.00
19023;BME280;35226;48.606;8.858;2023-05-23T00:10:12;96163.63;;;15.09;100.00
19023;BME280;35226;48.606;8.858;2023-05-23T00:12:38;96168.16;;;15.06;100.00
19023;BME280;35226;48.606;8.858;2023-05-23T00:15:07;96163.34;;;15.07;100.00
19023;BME280;35226;48.606;8.858;2023-05-23T00:17:34;96161.50;;;15.04;100.00
19023;BME280;35226;48.606;8.858;2023-05-23T00:20:05;96170.63;;;15.04;100.00
19023;BME280;35226;48.606;8.858;2023-05-23T00:22:34;96162.97;;;15.14;100.00
19023;BME280;35226;48.606;8.858;2023-05-23T00:25:01;96172.09;;;15.14;100.00
19023;BME280;35226;48.606;8.858;2023-05-23T00:27:26;96168.84;;;15.16;100.00
19023;BME280;35226;48.606;8.858;2023-05-23T00:29:53;96173.44;;;15.19;100.00
19023;BME280;35226;48.606;8.858;2023-05-23T00:32:21;96171.16;;;15.17;100.00
19023;BME280;35226;48.606;8.858;2023-05-23T00:34:48;96174.69;;;15.18;100.00
19023;BME280;35226;48.606;8.858;2023-05-23T00:37:13;96177.19;;;15.16;100.00
19023;BME280;35226;48.606;8.858;2023-05-23T00:39:39;96165.09;;;15.19;100.00
19023;BME280;35226;48.606;8.858;2023-05-23T00:42:08;96168.38;;;15.17;100.00
19023;BME280;35226;48.606;8.858;2023-05-23T00:44:34;96177.97;;;15.16;100.00
19023;BME280;35226;48.606;8.858;2023-05-23T00:47:00;96177.66;;;15.14;100.00
19023;BME280;35226;48.606;8.858;2023-05-23T00:49:26;96178.91;;;15.13;100.00
19023;BME280;35226;48.606;8.858;2023-05-23T00:51:52;96177.06;;;15.10;100.00
19023;BME280;35226;48.606;8.858;2023-05-23T00:54:23;96177.47;;;15.18;100.00
19023;BME280;35226;48.606;8.858;2023-05-23T00:56:49;96178.22;;;15.18;100.00
19023;BME280;35226;48.606;8.858;2023-05-23T00:59:15;96187.84;;;15.17;100.00
19023;BME280;35226;48.606;8.858;2023-05-23T01:01:41;96195.44;;;15.17;100.00
19023;BME280;35226;48.606;8.858;2023-05-23T01:04:12;96190.50;;;15.12;100.00
19023;BME280;35226;48.606;8.858;2023-05-23T01:06:38;96184.94;;;15.12;100.00
19023;BME280;35226;48.606;8.858;2023-05-23T01:09:04;96194.06;;;15.12;100.00
19023;BME280;35226;48.606;8.858;2023-05-23T01:11:49;96195.31;;;15.11;100.00
19023;BME280;35226;48.606;8.858;2023-05-23T01:14:23;96199.03;;;15.08;100.00
19023;BME280;35226;48.606;8.858;2023-05-23T01:16:57;96197.78;;;15.09;100.00
19023;BME280;35226;48.606;8.858;2023-05-23T01:21:54;96197.31;;;15.11;100.00
19023;BME280;35226;48.606;8.858;2023-05-23T01:29:45;96196.91;;;15.03;100.00
19023;BME280;35226;48.606;8.858;2023-05-23T01:32:15;96205.63;;;14.96;100.00
19023;BME280;35226;48.606;8.858;2023-05-23T01:34:41;96201.59;;;14.97;100.00
19023;BME280;35226;48.606;8.858;2023-05-23T01:37:09;96203.03;;;14.93;100.00
19023;BME280;35226;48.606;8.858;2023-05-23T01:39:36;96204.72;;;14.90;100.00
19023;BME280;35226;48.606;8.858;2023-05-23T01:42:02;96203.03;;;14.93;100.00
19023;BME280;35226;48.606;8.858;2023-05-23T01:44:28;96199.28;;;14.96;100.00
19023;BME280;35226;48.606;8.858;2023-05-23T01:46:54;96210.13;;;14.94;100.00
19023;BME280;35226;48.606;8.858;2023-05-23T01:49:21;96209.66;;;14.95;100.00
19023;BME280;35226;48.606;8.858;2023-05-23T01:51:47;96215.03;;;14.99;100.00
19023;BME280;35226;48.606;8.858;2023-05-23T02:02:08;96225.97;;;15.02;100.00
19023;BME280;35226;48.606;8.858;2023-05-23T02:04:33;96220.41;;;15.02;100.00
19023;BME280;35226;48.606;8.858;2023-05-23T02:06:59;96219.34;;;15.00;100.00
19023;BME280;35226;48.606;8.858;2023-05-23T02:09:24;96214.53;;;15.00;100.00
19023;BME280;35226;48.606;8.858;2023-05-23T02:11:49;96207.94;;;14.98;100.00
19023;BME280;35226;48.606;8.858;2023-05-23T02:14:15;96210.06;;;15.03;100.00
19023;BME280;35226;48.606;8.858;2023-05-23T02:16:42;96210.06;;;15.03;100.00
19023;BME280;35226;48.606;8.858;2023-05-23T02:19:08;96209.59;;;15.04;100.00
19023;BME280;35226;48.606;8.858;2023-05-23T02:21:33;96210.81;;;15.03;100.00
19023;BME280;35226;48.606;8.858;2023-05-23T02:23:58;96208.81;;;15.04;100.00
19023;BME280;35226;48.606;8.858;2023-05-23T02:26:24;96208.66;;;15.07;100.00
19023;BME280;35226;48.606;8.858;2023-05-23T02:28:52;96210.81;;;15.03;100.00
19023;BME280;35226;48.606;8.858;2023-05-23T02:31:17;96220.03;;;15.09;100.00
19023;BME280;35226;48.606;8.858;2023-05-23T02:33:43;96214.41;;;15.18;100.00
19023;BME280;35226;48.606;8.858;2023-05-23T02:36:08;96218.84;;;15.25;100.00
19023;BME280;35226;48.606;8.858;2023-05-23T02:38:34;96215.09;;;15.28;100.00
19023;BME280;35226;48.606;8.858;2023-05-23T02:40:59;96226.84;;;15.32;100.00
19023;BME280;35226;48.606;8.858;2023-05-23T02:43:25;96221.56;;;15.34;100.00
19023;BME280;35226;48.606;8.858;2023-05-23T02:45:51;96222.91;;;15.39;100.00
19023;BME280;35226;48.606;8.858;2023-05-23T02:48:16;96218.22;;;15.45;100.00
19023;BME280;35226;48.606;8.858;2023-05-23T02:50:43;96221.88;;;15.51;100.00
19023;BME280;35226;48.606;8.858;2023-05-23T02:53:08;96225.56;;;15.57;100.00
19023;BME280;35226;48.606;8.858;2023-05-23T02:55:34;96213.75;;;15.62;100.00
19023;BME280;35226;48.606;8.858;2023-05-23T02:58:00;96214.06;;;15.64;100.00
19023;BME280;35226;48.606;8.858;2023-05-23T03:00:30;96226.72;;;15.65;100.00
19023;BME280;35226;48.606;8.858;2023-05-23T03:02:57;96218.09;;;15.63;100.00
19023;BME280;35226;48.606;8.858;2023-05-23T03:05:22;96213.28;;;15.64;100.00
19023;BME280;35226;48.606;8.858;2023-05-23T03:07:48;96216.44;;;15.71;100.00
19023;BME280;35226;48.606;8.858;2023-05-23T03:10:13;96210.22;;;15.76;100.00
19023;BME280;35226;48.606;8.858;2023-05-23T03:12:39;96224.63;;;15.75;100.00
19023;BME280;35226;48.606;8.858;2023-05-23T03:15:06;96222.09;;;15.77;100.00
19023;BME280;35226;48.606;8.858;2023-05-23T03:17:34;96226.25;;;15.81;100.00
19023;BME280;35226;48.606;8.858;2023-05-23T03:19:59;96231.66;;;15.85;100.00
19023;BME280;35226;48.606;8.858;2023-05-23T03:22:25;96228.19;;;15.90;100.00
19023;BME280;35226;48.606;8.858;2023-05-23T03:24:50;96231.56;;;15.94;100.00
19023;BME280;35226;48.606;8.858;2023-05-23T03:27:15;96230.38;;;16.01;100.00
19023;BME280;35226;48.606;8.858;2023-05-23T03:29:41;96226.16;;;16.05;100.00
19023;BME280;35226;48.606;8.858;2023-05-23T03:32:06;96230.75;;;16.08;100.00
19023;BME280;35226;48.606;8.858;2023-05-23T03:34:33;96238.16;;;16.11;100.00
19023;BME280;35226;48.606;8.858;2023-05-23T03:37:02;96244.22;;;16.10;100.00
19023;BME280;35226;48.606;8.858;2023-05-23T03:39:28;96251.16;;;16.14;100.00
19023;BME280;35226;48.606;8.858;2023-05-23T03:41:55;96242.00;;;16.14;100.00
19023;BME280;35226;48.606;8.858;2023-05-23T03:44:21;96257.50;;;16.15;100.00
19023;BME280;35226;48.606;8.858;2023-05-23T03:46:46;96250.16;;;16.17;100.00
19023;BME280;35226;48.606;8.858;2023-05-23T03:49:13;96236.53;;;16.19;100.00
19023;BME280;35226;48.606;8.858;2023-05-23T03:51:39;96254.97;;;16.17;100.00
19023;BME280;35226;48.606;8.858;2023-05-23T03:54:05;96248.63;;;16.16;100.00
19023;BME280;35226;48.606;8.858;2023-05-23T03:56:31;96250.94;;;16.18;100.00
19023;BME280;35226;48.606;8.858;2023-05-23T03:58:56;96245.94;;;16.22;100.00
19023;BME280;35226;48.606;8.858;2023-05-23T04:01:22;96237.66;;;16.27;100.00
19023;BME280;35226;48.606;8.858;2023-05-23T04:03:48;96243.72;;;16.26;100.00
19023;BME280;35226;48.606;8.858;2023-05-23T04:06:15;96240.94;;;16.26;100.00
19023;BME280;35226;48.606;8.858;2023-05-23T04:08:43;96236.88;;;16.27;100.00
19023;BME280;35226;48.606;8.858;2023-05-23T04:11:10;96235.63;;;16.28;100.00
19023;BME280;35226;48.606;8.858;2023-05-23T04:13:38;96248.72;;;16.22;100.00
19023;BME280;35226;48.606;8.858;2023-05-23T04:16:04;96250.81;;;16.27;100.00
19023;BME280;35226;48.606;8.858;2023-05-23T04:18:31;96256.22;;;16.31;100.00
19023;BME280;35226;48.606;8.858;2023-05-23T04:20:58;96249.09;;;16.29;100.00
19023;BME280;35226;48.606;8.858;2023-05-23T04:23:24;96241.69;;;16.26;100.00
19023;BME280;35226;48.606;8.858;2023-05-23T04:25:51;96245.25;;;16.27;100.00
19023;BME280;35226;48.606;8.858;2023-05-23T04:28:20;96244.88;;;16.34;100.00
19023;BME280;35226;48.606;8.858;2023-05-23T04:30:46;96245.91;;;16.37;100.00
19023;BME280;35226;48.606;8.858;2023-05-23T04:33:16;96241.41;;;16.39;100.00
19023;BME280;35226;48.606;8.858;2023-05-23T04:35:42;96242.75;;;16.44;100.00
19023;BME280;35226;48.606;8.858;2023-05-23T04:38:08;96250.06;;;16.41;100.00
19023;BME280;35226;48.606;8.858;2023-05-23T04:40:34;96253.13;;;16.43;100.00
19023;BME280;35226;48.606;8.858;2023-05-23T04:43:18;96263.41;;;16.37;100.00
19023;BME280;35226;48.606;8.858;2023-05-23T04:45:53;96261.88;;;16.36;100.00
19023;BME280;35226;48.606;8.858;2023-05-23T04:48:33;96263.16;;;16.35;100.00
19023;BME280;35226;48.606;8.858;2023-05-23T04:51:00;96268.91;;;16.32;100.00
19023;BME280;35226;48.606;8.858;2023-05-23T04:53:30;96270.34;;;16.27;100.00
19023;BME280;35226;48.606;8.858;2023-05-23T04:55:56;96275.53;;;16.19;100.00
19023;BME280;35226;48.606;8.858;2023-05-23T04:58:22;96272.75;;;16.19;100.00
19023;BME280;35226;48.606;8.858;2023-05-23T05:00:48;96289.19;;;16.17;100.00
19023;BME280;35226;48.606;8.858;2023-05-23T05:03:15;96287.66;;;16.16;100.00
19023;BME280;35226;48.606;8.858;2023-05-23T05:05:44;96291.97;;;16.17;100.00
19023;BME280;35226;48.606;8.858;2023-05-23T05:08:09;96291.78;;;16.21;100.00
19023;BME280;35226;48.606;8.858;2023-05-23T05:10:37;96295.16;;;16.25;100.00
19023;BME280;35226;48.606;8.858;2023-05-23T05:13:02;96299.38;;;16.20;100.00
19023;BME280;35226;48.606;8.858;2023-05-23T05:15:34;96300.81;;;16.16;100.00
19023;BME280;35226;48.606;8.858;2023-05-23T05:18:01;96297.66;;;16.08;100.00
19023;BME280;35226;48.606;8.858;2023-05-23T05:20:26;96301.19;;;16.09;100.00
19023;BME280;35226;48.606;8.858;2023-05-23T05:22:56;96298.13;;;16.07;100.00
19023;BME280;35226;48.606;8.858;2023-05-23T05:25:22;96305.25;;;16.08;100.00
19023;BME280;35226;48.606;8.858;2023-05-23T05:27:48;96307.75;;;16.06;100.00
19023;BME280;35226;48.606;8.858;2023-05-23T05:30:17;96303.22;;;16.08;100.00
19023;BME280;35226;48.606;8.858;2023-05-23T05:32:49;96308.22;;;16.04;100.00
19023;BME280;35226;48.606;8.858;2023-05-23T05:35:16;96310.63;;;16.11;100.00
19023;BME280;35226;48.606;8.858;2023-05-23T05:37:43;96308.63;;;16.12;100.00
19023;BME280;35226;48.606;8.858;2023-05-23T05:40:11;96300.81;;;16.01;100.00
19023;BME280;35226;48.606;8.858;2023-05-23T05:42:40;96308.78;;;16.08;100.00
19023;BME280;35226;48.606;8.858;2023-05-23T05:45:06;96303.91;;;16.03;100.00
19023;BME280;35226;48.606;8.858;2023-05-23T05:47:32;96314.47;;;15.99;100.00
19023;BME280;35226;48.606;8.858;2023-05-23T05:49:57;96310.13;;;15.98;100.00
19023;BME280;35226;48.606;8.858;2023-05-23T05:52:23;96318.00;;;16.00;100.00
19023;BME280;35226;48.606;8.858;2023-05-23T05:54:48;96310.44;;;16.00;100.00
19023;BME280;35226;48.606;8.858;2023-05-23T05:57:14;96299.41;;;16.06;100.00
19023;BME280;35226;48.606;8.858;2023-05-23T05:59:40;96314.47;;;15.99;100.00
19023;BME280;35226;48.606;8.858;2023-05-23T06:02:05;96312.16;;;15.98;100.00
19023;BME280;35226;48.606;8.858;2023-05-23T06:04:32;96302.84;;;16.01;100.00
19023;BME280;35226;48.606;8.858;2023-05-23T06:06:58;96300.34;;;16.03;100.00
19023;BME280;35226;48.606;8.858;2023-05-23T06:09:23;96300.34;;;16.03;100.00
19023;BME280;35226;48.606;8.858;2023-05-23T06:11:48;96300.13;;;16.06;100.00
19023;BME280;35226;48.606;8.858;2023-05-23T06:14:14;96300.72;;;16.10;100.00
19023;BME280;35226;48.606;8.858;2023-05-23T06:16:42;96302.66;;;16.19;100.00
19023;BME280;35226;48.606;8.858;2023-05-23T06:19:08;96302.56;;;16.13;100.00
19023;BME280;35226;48.606;8.858;2023-05-23T06:21:33;96307.94;;;16.17;100.00
19023;BME280;35226;48.606;8.858;2023-05-23T06:23:59;96308.69;;;16.17;100.00
19023;BME280;35226;48.606;8.858;2023-05-23T06:26:25;96314.47;;;16.28;100.00
19023;BME280;35226;48.606;8.858;2023-05-23T06:28:51;96309.28;;;16.21;100.00
19023;BME280;35226;48.606;8.858;2023-05-23T06:31:16;96314.94;;;16.27;100.00
19023;BME280;35226;48.606;8.858;2023-05-23T06:33:42;96315.13;;;16.38;100.00
19023;BME280;35226;48.606;8.858;2023-05-23T06:36:09;96317.72;;;16.27;100.00
19023;BME280;35226;48.606;8.858;2023-05-23T06:38:34;96315.44;;;16.25;100.00
19023;BME280;35226;48.606;8.858;2023-05-23T06:41:00;96317.84;;;16.33;100.00
19023;BME280;35226;48.606;8.858;2023-05-23T06:43:28;96315.06;;;16.33;100.00
19023;BME280;35226;48.606;8.858;2023-05-23T06:46:10;96322.94;;;16.34;100.00
19023;BME280;35226;48.606;8.858;2023-05-23T06:48:35;96325.53;;;16.23;100.00
19023;BME280;35226;48.606;8.858;2023-05-23T06:51:01;96322.94;;;16.19;100.00
19023;BME280;35226;48.606;8.858;2023-05-23T06:53:27;96331.69;;;16.27;100.00
19023;BME280;35226;48.606;8.858;2023-05-23T06:55:53;96327.63;;;16.28;100.00
19023;BME280;35226;48.606;8.858;2023-05-23T06:58:21;96327.75;;;16.34;100.00
19023;BME280;35226;48.606;8.858;2023-05-23T07:00:49;96331.56;;;16.36;100.00
19023;BME280;35226;48.606;8.858;2023-05-23T07:03:20;96330.53;;;16.34;100.00
19023;BME280;35226;48.606;8.858;2023-05-23T07:05:47;96340.53;;;16.40;100.00
19023;BME280;35226;48.606;8.858;2023-05-23T07:08:14;96336.19;;;16.39;100.00
19023;BME280;35226;48.606;8.858;2023-05-23T07:10:52;96328.91;;;16.42;100.00
19023;BME280;35226;48.606;8.858;2023-05-23T07:13:28;96327.66;;;16.43;100.00
19023;BME280;35226;48.606;8.858;2023-05-23T07:15:54;96331.97;;;16.44;100.00
19023;BME280;35226;48.606;8.858;2023-05-23T07:18:20;96331.47;;;16.45;100.00
19023;BME280;35226;48.606;8.858;2023-05-23T07:20:46;96336.38;;;16.36;100.00
19023;BME280;35226;48.606;8.858;2023-05-23T07:23:17;96337.75;;;16.40;100.00
19023;BME280;35226;48.606;8.858;2023-05-23T07:25:44;96337.44;;;16.38;100.00
19023;BME280;35226;48.606;8.858;2023-05-23T07:28:19;96337.53;;;16.29;100.00
19023;BME280;35226;48.606;8.858;2023-05-23T07:30:45;96341.59;;;16.28;100.00
19023;BME280;35226;48.606;8.858;2023-05-23T07:33:11;96343.03;;;16.23;100.00
19023;BME280;35226;48.606;8.858;2023-05-23T07:35:36;96350.16;;;16.24;100.00
19023;BME280;35226;48.606;8.858;2023-05-23T07:38:02;96355.69;;;16.10;100.00
19023;BME280;35226;48.606;8.858;2023-05-23T07:40:29;96360.63;;;16.15;100.00
19023;BME280;35226;48.606;8.858;2023-05-23T07:42:54;96367.22;;;16.17;100.00
19023;BME280;35226;48.606;8.858;2023-05-23T07:45:20;96364.34;;;16.12;100.00
19023;BME280;35226;48.606;8.858;2023-05-23T07:47:46;96362.59;;;16.00;100.00
19023;BME280;35226;48.606;8.858;2023-05-23T07:50:14;96358.66;;;15.91;100.00
19023;BME280;35226;48.606;8.858;2023-05-23T07:52:39;96358.06;;;15.87;100.00
19023;BME280;35226;48.606;8.858;2023-05-23T07:55:08;96354.69;;;15.83;100.00
19023;BME280;35226;48.606;8.858;2023-05-23T07:57:33;96356.41;;;15.81;100.00
19023;BME280;35226;48.606;8.858;2023-05-23T07:59:59;96353.47;;;15.84;100.00
19023;BME280;35226;48.606;8.858;2023-05-23T08:02:27;96353.06;;;15.91;100.00
19023;BME280;35226;48.606;8.858;2023-05-23T08:04:52;96345.97;;;15.90;100.00
19023;BME280;35226;48.606;8.858;2023-05-23T08:07:18;96349.53;;;15.91;100.00
19023;BME280;35226;48.606;8.858;2023-05-23T08:09:48;96349.81;;;15.93;100.00
19023;BME280;35226;48.606;8.858;2023-05-23T08:12:17;96348.50;;;16.03;100.00
19023;BME280;35226;48.606;8.858;2023-05-23T08:14:44;96355.88;;;16.06;100.00
19023;BME280;35226;48.606;8.858;2023-05-23T08:17:18;96356.09;;;16.03;100.00
19023;BME280;35226;48.606;8.858;2023-05-23T08:19:45;96353.78;;;16.01;100.00
19023;BME280;35226;48.606;8.858;2023-05-23T08:22:11;96362.81;;;15.96;100.00
19023;BME280;35226;48.606;8.858;2023-05-23T08:24:36;96365.63;;;15.87;100.00
19023;BME280;35226;48.606;8.858;2023-05-23T08:27:03;96367.66;;;15.86;100.00
19023;BME280;35226;48.606;8.858;2023-05-23T08:29:30;96365.94;;;15.89;100.00
19023;BME280;35226;48.606;8.858;2023-05-23T08:31:55;96373.34;;;15.92;100.00
19023;BME280;35226;48.606;8.858;2023-05-23T08:34:21;96372.47;;;15.86;100.00
19023;BME280;35226;48.606;8.858;2023-05-23T08:36:47;96377.69;;;16.08;100.00
19023;BME280;35226;48.606;8.858;2023-05-23T08:39:17;96377.22;;;16.09;100.00
19023;BME280;35226;48.606;8.858;2023-05-23T08:42:02;96374.13;;;15.93;100.00
19023;BME280;35226;48.606;8.858;2023-05-23T08:49:54;96388.84;;;16.08;100.00
19023;BME280;35226;48.606;8.858;2023-05-23T08:52:20;96393.72;;;15.98;100.00
19023;BME280;35226;48.606;8.858;2023-05-23T08:54:51;96388.16;;;15.98;100.00
19023;BME280;35226;48.606;8.858;2023-05-23T08:57:17;96394.00;;;15.85;100.00
19023;BME280;35226;48.606;8.858;2023-05-23T08:59:48;96394.53;;;15.75;100.00
19023;BME280;35226;48.606;8.858;2023-05-23T09:02:15;96397.72;;;15.82;100.00
19023;BME280;35226;48.606;8.858;2023-05-23T09:04:41;96402.16;;;15.89;100.00
19023;BME280;35226;48.606;8.858;2023-05-23T09:07:14;96395.28;;;15.99;100.00
19023;BME280;35226;48.606;8.858;2023-05-23T09:09:42;96398.34;;;16.01;100.00
19023;BME280;35226;48.606;8.858;2023-05-23T09:12:09;96392.78;;;16.16;100.00
19023;BME280;35226;48.606;8.858;2023-05-23T09:14:38;96402.50;;;16.06;100.00
19023;BME280;35226;48.606;8.858;2023-05-23T09:17:06;96398.94;;;16.05;100.00
19023;BME280;35226;48.606;8.858;2023-05-23T09:19:32;96400.75;;;16.08;100.00
19023;BME280;35226;48.606;8.858;2023-05-23T09:22:09;96415.28;;;16.12;100.00
19023;BME280;35226;48.606;8.858;2023-05-23T09:24:49;96407.72;;;16.13;100.00
19023;BME280;35226;48.606;8.858;2023-05-23T09:27:16;96408.66;;;16.10;100.00
19023;BME280;35226;48.606;8.858;2023-05-23T09:29:41;96415.94;;;16.07;100.00
19023;BME280;35226;48.606;8.858;2023-05-23T09:32:17;96406.00;;;16.15;100.00
19023;BME280;35226;48.606;8.858;2023-05-23T09:35:01;96407.81;;;16.18;100.00
19023;BME280;35226;48.606;8.858;2023-05-23T09:37:42;96414.97;;;16.34;100.00
19023;BME280;35226;48.606;8.858;2023-05-23T09:40:11;96407.16;;;16.23;100.00
19023;BME280;35226;48.606;8.858;2023-05-23T09:42:42;96413.13;;;16.46;100.00
19023;BME280;35226;48.606;8.858;2023-05-23T09:45:09;96418.53;;;16.49;100.00
19023;BME280;35226;48.606;8.858;2023-05-23T09:47:34;96410.06;;;16.44;100.00
19023;BME280;35226;48.606;8.858;2023-05-23T09:50:00;96411.31;;;16.43;100.00
19023;BME280;35226;48.606;8.858;2023-05-23T09:52:26;96409.00;;;16.41;100.00
19023;BME280;35226;48.606;8.858;2023-05-23T09:54:53;96410.16;;;16.49;100.00
19023;BME280;35226;48.606;8.858;2023-05-23T09:57:21;96416.97;;;16.48;100.00
19023;BME280;35226;48.606;8.858;2023-05-23T09:59:54;96420.28;;;16.61;100.00
19023;BME280;35226;48.606;8.858;2023-05-23T10:08:07;96419.00;;;16.48;100.00
19023;BME280;35226;48.606;8.858;2023-05-23T10:13:20;96419.34;;;16.64;100.00
19023;BME280;35226;48.606;8.858;2023-05-23T10:15:48;96422.59;;;16.63;100.00
19023;BME280;35226;48.606;8.858;2023-05-23T10:18:18;96417.28;;;16.94;100.00
19023;BME280;35226;48.606;8.858;2023-05-23T10:20:48;96419.69;;;17.01;100.00
19023;BME280;35226;48.606;8.858;2023-05-23T10:23:14;96423.53;;;17.04;100.00
19023;BME280;35226;48.606;8.858;2023-05-23T10:25:41;96422.19;;;16.85;100.00
19023;BME280;35226;48.606;8.858;2023-05-23T10:28:07;96419.28;;;17.09;100.00
19023;BME280;35226;48.606;8.858;2023-05-23T10:30:33;96417.56;;;17.11;100.00
19023;BME280;35226;48.606;8.858;2023-05-23T10:32:59;96421.03;;;17.06;100.00
19023;BME280;35226;48.606;8.858;2023-05-23T10:35:49;96416.38;;;17.18;100.00
19023;BME280;35226;48.606;8.858;2023-05-23T10:43:35;96406.13;;;17.99;100.00
19023;BME280;35226;48.606;8.858;2023-05-23T10:46:08;96416.88;;;17.86;100.00
19023;BME280;35226;48.606;8.858;2023-05-23T10:48:35;96416.59;;;17.84;100.00
19023;BME280;35226;48.606;8.858;2023-05-23T10:51:07;96406.66;;;17.63;100.00
19023;BME280;35226;48.606;8.858;2023-05-23T10:53:38;96411.09;;;17.55;100.00
19023;BME280;35226;48.606;8.858;2023-05-23T10:56:05;96414.66;;;17.55;100.00
19023;BME280;35226;48.606;8.858;2023-05-23T10:58:32;96418.09;;;17.65;100.00
19023;BME280;35226;48.606;8.858;2023-05-23T11:01:03;96414.69;;;17.75;100.00
19023;BME280;35226;48.606;8.858;2023-05-23T11:03:31;96416.38;;;17.88;100.00
19023;BME280;35226;48.606;8.858;2023-05-23T11:05:58;96407.91;;;18.02;100.00
19023;BME280;35226;48.606;8.858;2023-05-23T11:08:23;96410.44;;;18.00;100.00
19023;BME280;35226;48.606;8.858;2023-05-23T11:13:19;96416.38;;;18.08;100.00
19023;BME280;35226;48.606;8.858;2023-05-23T11:15:46;96417.06;;;18.03;100.00
19023;BME280;35226;48.606;8.858;2023-05-23T11:18:23;96418.88;;;18.06;100.00
19023;BME280;35226;48.606;8.858;2023-05-23T11:20:52;96411.94;;;18.22;100.00
19023;BME280;35226;48.606;8.858;2023-05-23T11:23:18;96418.03;;;18.40;100.00
19023;BME280;35226;48.606;8.858;2023-05-23T11:25:47;96418.38;;;18.74;100.00
19023;BME280;35226;48.606;8.858;2023-05-23T11:28:13;96417.97;;;18.87;100.00
19023;BME280;35226;48.606;8.858;2023-05-23T11:30:39;96410.41;;;19.30;100.00
19023;BME280;35226;48.606;8.858;2023-05-23T11:33:10;96410.31;;;19.50;100.00
19023;BME280;35226;48.606;8.858;2023-05-23T11:35:42;96411.03;;;19.08;100.00
19023;BME280;35226;48.606;8.858;2023-05-23T11:38:08;96405.53;;;19.19;100.00
19023;BME280;35226;48.606;8.858;2023-05-23T11:40:35;96409.03;;;19.14;100.00
19023;BME280;35226;48.606;8.858;2023-05-23T11:43:03;96405.75;;;19.15;100.00
19023;BME280;35226;48.606;8.858;2023-05-23T11:45:30;96408.06;;;19.22;100.00
19023;BME280;35226;48.606;8.858;2023-05-23T11:47:57;96416.75;;;18.93;100.00
19023;BME280;35226;48.606;8.858;2023-05-23T11:50:22;96407.66;;;18.98;100.00
19023;BME280;35226;48.606;8.858;2023-05-23T11:52:49;96403.50;;;18.88;100.00
19023;BME280;35226;48.606;8.858;2023-05-23T11:55:21;96412.84;;;18.79;100.00
19023;BME280;35226;48.606;8.858;2023-05-23T11:57:47;96407.94;;;18.74;100.00
19023;BME280;35226;48.606;8.858;2023-05-23T12:00:13;96398.66;;;18.63;100.00
19023;BME280;35226;48.606;8.858;2023-05-23T12:02:43;96411.53;;;18.55;100.00
19023;BME280;35226;48.606;8.858;2023-05-23T12:05:11;96405.09;;;18.69;100.00
19023;BME280;35226;48.606;8.858;2023-05-23T12:07:44;96410.41;;;18.67;100.00
19023;BME280;35226;48.606;8.858;2023-05-23T12:10:10;96409.78;;;19.09;100.00
19023;BME280;35226;48.606;8.858;2023-05-23T12:12:37;96404.06;;;19.29;100.00
19023;BME280;35226;48.606;8.858;2023-05-23T12:15:03;96400.28;;;19.75;100.00
19023;BME280;35226;48.606;8.858;2023-05-23T12:17:29;96392.31;;;19.62;100.00
19023;BME280;35226;48.606;8.858;2023-05-23T12:19:55;96401.31;;;19.77;100.00
19023;BME280;35226;48.606;8.858;2023-05-23T12:22:24;96400.78;;;19.79;100.00
19023;BME280;35226;48.606;8.858;2023-05-23T12:24:53;96406.88;;;19.72;100.00
19023;BME280;35226;48.606;8.858;2023-05-23T12:27:26;96388.09;;;19.83;100.00
19023;BME280;35226;48.606;8.858;2023-05-23T12:30:04;96394.78;;;20.03;100.00
19023;BME280;35226;48.606;8.858;2023-05-23T12:32:30;96398.19;;;19.70;100.00
19023;BME280;35226;48.606;8.858;2023-05-23T12:34:56;96404.72;;;19.50;100.00
19023;BME280;35226;48.606;8.858;2023-05-23T12:37:21;96400.78;;;19.73;100.00
19023;BME280;35226;48.606;8.858;2023-05-23T12:39:48;96399.34;;;19.94;100.00
19023;BME280;35226;48.606;8.858;2023-05-23T12:42:14;96393.03;;;20.11;100.00
19023;BME280;35226;48.606;8.858;2023-05-23T12:44:40;96380.13;;;20.41;100.00
19023;BME280;35226;48.606;8.858;2023-05-23T12:47:06;96382.38;;;20.31;100.00
19023;BME280;35226;48.606;8.858;2023-05-23T12:49:31;96387.31;;;20.53;100.00
19023;BME280;35226;48.606;8.858;2023-05-23T12:51:57;96390.28;;;20.22;100.00
19023;BME280;35226;48.606;8.858;2023-05-23T12:54:22;96382.19;;;20.35;100.00
19023;BME280;35226;48.606;8.858;2023-05-23T12:56:48;96375.06;;;20.51;100.00
19023;BME280;35226;48.606;8.858;2023-05-23T12:59:13;96377.88;;;20.51;100.00
19023;BME280;35226;48.606;8.858;2023-05-23T13:01:39;96378.91;;;20.81;100.00
19023;BME280;35226;48.606;8.858;2023-05-23T13:04:04;96373.81;;;21.08;93.42
19023;BME280;35226;48.606;8.858;2023-05-23T13:06:29;96385.31;;;21.32;89.57
19023;BME280;35226;48.606;8.858;2023-05-23T13:08:55;96370.53;;;22.06;81.64
19023;BME280;35226;48.606;8.858;2023-05-23T13:11:21;96378.31;;;21.66;86.36
19023;BME280;35226;48.606;8.858;2023-05-23T13:13:47;96382.22;;;21.52;92.15
19023;BME280;35226;48.606;8.858;2023-05-23T13:16:13;96389.16;;;21.34;95.96
19023;BME280;35226;48.606;8.858;2023-05-23T13:18:40;96384.03;;;20.72;100.00
19023;BME280;35226;48.606;8.858;2023-05-23T13:21:05;96379.16;;;21.17;98.72
19023;BME280;35226;48.606;8.858;2023-05-23T13:23:31;96382.97;;;21.53;88.35
19023;BME280;35226;48.606;8.858;2023-05-23T13:25:56;96379.91;;;21.45;82.66
19023;BME280;35226;48.606;8.858;2023-05-23T13:28:22;96376.38;;;21.28;89.63